Chongqing Jiangbei International Airport
ZUCK : now visible

Airfield :











YOU CAN JOIN US ON...

 
LOGIN :

Register | Disclaimer

   EN    FR    IT 

 









Legend :    VFR   Marginal VFR   IFR   Intensive IFR   Very Intensive IFR
Visi :
Ceiling :
>= 8 km
>= 3000ft
5 to 8 km
1000 to 3000 ft
1500m to 5 km
500 to 1000 ft
800 to 1500m
200 to 500 ft
< 800m
< 200 ft
Symbols :   Thunderstorms  Fog  Heavy snow  Heavy precipitations  Wind > 20 kt






- Airport Elevation : 1365 ft
- IATA code : CKG


ZUCK - Chongqing Jiangbei International

CURRENT METAR :
  • 141400Z 03005MPS CAVOK 27/18 Q1007 NOSIG

EXPIRED METARs :
  • 141300Z 01004MPS CAVOK 26/18 Q1006 NOSIG
  • 141200Z 02003MPS 010V080 CAVOK 28/18 Q1005 NOSIG
  • 141100Z 06003MPS CAVOK 29/17 Q1005 NOSIG
  • 141000Z 07002MPS 030V100 CAVOK 30/18 Q1005 NOSIG

TAF TAF ZUCK
Valid from the 14 at 12:00 until the 15 at 12:00 UTC


140902Z 1412/1512 03003MPS 6000 SCT050 TX32/1507Z TN20/1422Z
ZPKM FIR / Asia



MET'MAP, your aeronautical weather chart ! - Copyright ORBIFLY December 2007 - Disclaimer

ORBIFLY MET'MAP TEAM :

Programming & Development : Alexandra Zaïnal
Original concept : Baudouin d'Aumeries
Technical & hardware support : Manuel Goepfert
Assistance : Marc-Olivier Méhu




SOURCES & CREDITS :

   NOAA       Earth
Advisory